sensor_id;sensor_type;location;lat;lon;timestamp;P1;durP1;ratioP1;P2;durP2;ratioP2
527;SDS011;250;47.712;7.508;2022-09-21T00:00:53;6.50;;;3.40;;
527;SDS011;250;47.712;7.508;2022-09-21T00:03:29;14.63;;;8.00;;
527;SDS011;250;47.712;7.508;2022-09-21T00:06:00;7.80;;;4.20;;
527;SDS011;250;47.712;7.508;2022-09-21T00:08:28;7.57;;;4.90;;
527;SDS011;250;47.712;7.508;2022-09-21T00:10:55;24.67;;;11.00;;
527;SDS011;250;47.712;7.508;2022-09-21T00:13:23;12.73;;;5.60;;
527;SDS011;250;47.712;7.508;2022-09-21T00:15:52;9.47;;;5.23;;
527;SDS011;250;47.712;7.508;2022-09-21T00:18:19;7.93;;;3.67;;
527;SDS011;250;47.712;7.508;2022-09-21T00:20:46;8.77;;;4.80;;
527;SDS011;250;47.712;7.508;2022-09-21T00:23:13;11.33;;;4.70;;
527;SDS011;250;47.712;7.508;2022-09-21T00:25:40;8.80;;;3.60;;
527;SDS011;250;47.712;7.508;2022-09-21T00:28:07;10.53;;;4.10;;
527;SDS011;250;47.712;7.508;2022-09-21T00:30:37;7.13;;;4.57;;
527;SDS011;250;47.712;7.508;2022-09-21T00:33:04;8.57;;;3.70;;
527;SDS011;250;47.712;7.508;2022-09-21T00:35:31;7.80;;;2.63;;
527;SDS011;250;47.712;7.508;2022-09-21T00:37:59;8.37;;;3.80;;
527;SDS011;250;47.712;7.508;2022-09-21T00:40:27;14.00;;;6.17;;
527;SDS011;250;47.712;7.508;2022-09-21T00:43:08;28.83;;;11.80;;
527;SDS011;250;47.712;7.508;2022-09-21T00:45:38;8.10;;;4.30;;
527;SDS011;250;47.712;7.508;2022-09-21T00:48:06;4.47;;;2.97;;
527;SDS011;250;47.712;7.508;2022-09-21T00:50:33;6.63;;;3.50;;
527;SDS011;250;47.712;7.508;2022-09-21T00:53:03;7.33;;;3.20;;
527;SDS011;250;47.712;7.508;2022-09-21T00:55:31;8.50;;;3.37;;
527;SDS011;250;47.712;7.508;2022-09-21T00:58:03;3.80;;;2.23;;
527;SDS011;250;47.712;7.508;2022-09-21T01:00:34;4.37;;;3.00;;
527;SDS011;250;47.712;7.508;2022-09-21T01:03:03;3.30;;;2.37;;
527;SDS011;250;47.712;7.508;2022-09-21T01:05:30;4.53;;;2.50;;
527;SDS011;250;47.712;7.508;2022-09-21T01:07:58;2.77;;;2.43;;
527;SDS011;250;47.712;7.508;2022-09-21T01:10:29;8.53;;;4.77;;
527;SDS011;250;47.712;7.508;2022-09-21T01:13:03;5.80;;;3.17;;
527;SDS011;250;47.712;7.508;2022-09-21T01:15:42;4.23;;;3.37;;
527;SDS011;250;47.712;7.508;2022-09-21T01:18:19;7.13;;;3.50;;
527;SDS011;250;47.712;7.508;2022-09-21T01:21:07;8.67;;;5.17;;
527;SDS011;250;47.712;7.508;2022-09-21T01:24:01;18.80;;;9.27;;
527;SDS011;250;47.712;7.508;2022-09-21T01:26:44;29.03;;;11.37;;
527;SDS011;250;47.712;7.508;2022-09-21T01:29:27;23.43;;;11.03;;
527;SDS011;250;47.712;7.508;2022-09-21T01:32:01;6.90;;;4.67;;
527;SDS011;250;47.712;7.508;2022-09-21T01:34:35;5.10;;;3.50;;
527;SDS011;250;47.712;7.508;2022-09-21T01:37:09;4.93;;;2.60;;
527;SDS011;250;47.712;7.508;2022-09-21T01:39:39;6.53;;;4.17;;
527;SDS011;250;47.712;7.508;2022-09-21T01:42:11;8.30;;;4.43;;
527;SDS011;250;47.712;7.508;2022-09-21T01:44:41;6.37;;;3.80;;
527;SDS011;250;47.712;7.508;2022-09-21T01:47:11;6.60;;;3.63;;
527;SDS011;250;47.712;7.508;2022-09-21T01:49:40;3.87;;;2.00;;
527;SDS011;250;47.712;7.508;2022-09-21T01:52:11;6.50;;;2.90;;
527;SDS011;250;47.712;7.508;2022-09-21T01:54:42;8.13;;;2.77;;
527;SDS011;250;47.712;7.508;2022-09-21T01:57:13;3.73;;;2.30;;
527;SDS011;250;47.712;7.508;2022-09-21T01:59:49;2.67;;;2.17;;
527;SDS011;250;47.712;7.508;2022-09-21T02:02:18;5.10;;;2.50;;
527;SDS011;250;47.712;7.508;2022-09-21T02:04:49;5.23;;;2.60;;
527;SDS011;250;47.712;7.508;2022-09-21T02:07:17;3.27;;;2.80;;
527;SDS011;250;47.712;7.508;2022-09-21T02:09:44;3.93;;;2.57;;
527;SDS011;250;47.712;7.508;2022-09-21T02:12:13;4.27;;;2.70;;
527;SDS011;250;47.712;7.508;2022-09-21T02:14:40;5.40;;;2.93;;
527;SDS011;250;47.712;7.508;2022-09-21T02:17:15;4.13;;;2.70;;
527;SDS011;250;47.712;7.508;2022-09-21T02:19:57;4.50;;;2.87;;
527;SDS011;250;47.712;7.508;2022-09-21T02:22:34;2.70;;;2.20;;
527;SDS011;250;47.712;7.508;2022-09-21T02:25:06;3.00;;;2.37;;
527;SDS011;250;47.712;7.508;2022-09-21T02:27:40;4.87;;;2.70;;
527;SDS011;250;47.712;7.508;2022-09-21T02:30:12;4.13;;;2.50;;
527;SDS011;250;47.712;7.508;2022-09-21T02:32:44;5.77;;;3.50;;
527;SDS011;250;47.712;7.508;2022-09-21T02:35:20;6.83;;;3.53;;
527;SDS011;250;47.712;7.508;2022-09-21T02:37:58;4.50;;;3.03;;
527;SDS011;250;47.712;7.508;2022-09-21T02:40:32;3.63;;;2.70;;
527;SDS011;250;47.712;7.508;2022-09-21T02:43:07;4.07;;;2.50;;
527;SDS011;250;47.712;7.508;2022-09-21T02:45:39;7.50;;;3.40;;
527;SDS011;250;47.712;7.508;2022-09-21T02:48:12;4.00;;;3.40;;
527;SDS011;250;47.712;7.508;2022-09-21T02:50:43;4.47;;;2.73;;
527;SDS011;250;47.712;7.508;2022-09-21T02:53:12;7.90;;;2.53;;
527;SDS011;250;47.712;7.508;2022-09-21T02:55:44;4.70;;;3.40;;
527;SDS011;250;47.712;7.508;2022-09-21T02:58:13;4.93;;;3.10;;
527;SDS011;250;47.712;7.508;2022-09-21T03:00:42;3.57;;;2.30;;
527;SDS011;250;47.712;7.508;2022-09-21T03:03:17;3.00;;;2.60;;
527;SDS011;250;47.712;7.508;2022-09-21T03:05:47;4.30;;;3.17;;
527;SDS011;250;47.712;7.508;2022-09-21T03:08:15;3.57;;;2.90;;
527;SDS011;250;47.712;7.508;2022-09-21T03:10:42;3.93;;;2.80;;
527;SDS011;250;47.712;7.508;2022-09-21T03:13:10;4.50;;;2.47;;
527;SDS011;250;47.712;7.508;2022-09-21T03:15:38;5.97;;;2.67;;
527;SDS011;250;47.712;7.508;2022-09-21T03:18:07;3.20;;;2.33;;
527;SDS011;250;47.712;7.508;2022-09-21T03:20:36;6.70;;;3.17;;
527;SDS011;250;47.712;7.508;2022-09-21T03:23:04;3.00;;;2.20;;
527;SDS011;250;47.712;7.508;2022-09-21T03:25:31;4.80;;;2.73;;
527;SDS011;250;47.712;7.508;2022-09-21T03:27:59;3.70;;;2.70;;
527;SDS011;250;47.712;7.508;2022-09-21T03:30:26;3.13;;;2.17;;
527;SDS011;250;47.712;7.508;2022-09-21T03:32:54;4.30;;;2.80;;
527;SDS011;250;47.712;7.508;2022-09-21T03:35:22;2.90;;;2.27;;
527;SDS011;250;47.712;7.508;2022-09-21T03:37:52;3.93;;;3.03;;
527;SDS011;250;47.712;7.508;2022-09-21T03:40:19;4.60;;;2.83;;
527;SDS011;250;47.712;7.508;2022-09-21T03:42:47;4.13;;;2.40;;
527;SDS011;250;47.712;7.508;2022-09-21T03:45:14;4.93;;;2.77;;
527;SDS011;250;47.712;7.508;2022-09-21T03:47:41;4.37;;;2.40;;
527;SDS011;250;47.712;7.508;2022-09-21T03:50:08;2.80;;;2.13;;
527;SDS011;250;47.712;7.508;2022-09-21T03:52:36;3.43;;;2.57;;
527;SDS011;250;47.712;7.508;2022-09-21T03:55:05;2.77;;;2.10;;
527;SDS011;250;47.712;7.508;2022-09-21T03:57:34;3.50;;;2.30;;
527;SDS011;250;47.712;7.508;2022-09-21T04:00:03;3.33;;;2.30;;
527;SDS011;250;47.712;7.508;2022-09-21T04:02:32;2.90;;;2.40;;
527;SDS011;250;47.712;7.508;2022-09-21T04:05:00;3.80;;;2.13;;
527;SDS011;250;47.712;7.508;2022-09-21T04:07:29;4.50;;;1.67;;
527;SDS011;250;47.712;7.508;2022-09-21T04:09:57;2.87;;;2.20;;
527;SDS011;250;47.712;7.508;2022-09-21T04:12:26;3.93;;;2.70;;
527;SDS011;250;47.712;7.508;2022-09-21T04:14:54;4.90;;;3.50;;
527;SDS011;250;47.712;7.508;2022-09-21T04:17:21;5.33;;;3.10;;
527;SDS011;250;47.712;7.508;2022-09-21T04:19:48;5.53;;;3.50;;
527;SDS011;250;47.712;7.508;2022-09-21T04:22:15;3.70;;;2.23;;
527;SDS011;250;47.712;7.508;2022-09-21T04:24:43;6.20;;;2.20;;
527;SDS011;250;47.712;7.508;2022-09-21T04:27:10;2.33;;;1.77;;
527;SDS011;250;47.712;7.508;2022-09-21T04:29:39;2.63;;;1.50;;
527;SDS011;250;47.712;7.508;2022-09-21T04:32:06;2.30;;;1.73;;
527;SDS011;250;47.712;7.508;2022-09-21T04:34:33;3.80;;;2.07;;
527;SDS011;250;47.712;7.508;2022-09-21T04:37:00;2.60;;;1.60;;
527;SDS011;250;47.712;7.508;2022-09-21T04:39:27;4.60;;;2.00;;
527;SDS011;250;47.712;7.508;2022-09-21T04:41:54;3.00;;;2.30;;
527;SDS011;250;47.712;7.508;2022-09-21T04:44:21;2.40;;;1.73;;
527;SDS011;250;47.712;7.508;2022-09-21T04:46:50;7.03;;;2.80;;
527;SDS011;250;47.712;7.508;2022-09-21T04:49:17;4.60;;;2.40;;
527;SDS011;250;47.712;7.508;2022-09-21T04:51:44;2.43;;;1.90;;
527;SDS011;250;47.712;7.508;2022-09-21T04:54:11;5.53;;;2.07;;
527;SDS011;250;47.712;7.508;2022-09-21T04:56:38;5.40;;;2.77;;
527;SDS011;250;47.712;7.508;2022-09-21T04:59:05;4.83;;;2.30;;
527;SDS011;250;47.712;7.508;2022-09-21T05:01:32;3.33;;;2.40;;
527;SDS011;250;47.712;7.508;2022-09-21T05:04:01;3.73;;;2.40;;
527;SDS011;250;47.712;7.508;2022-09-21T05:06:28;3.40;;;1.90;;
527;SDS011;250;47.712;7.508;2022-09-21T05:08:56;2.20;;;1.70;;
527;SDS011;250;47.712;7.508;2022-09-21T05:11:40;2.80;;;2.10;;
527;SDS011;250;47.712;7.508;2022-09-21T05:14:08;3.47;;;2.10;;
527;SDS011;250;47.712;7.508;2022-09-21T05:16:35;4.50;;;2.57;;
527;SDS011;250;47.712;7.508;2022-09-21T05:19:04;2.90;;;2.20;;
527;SDS011;250;47.712;7.508;2022-09-21T05:21:31;3.87;;;2.80;;
527;SDS011;250;47.712;7.508;2022-09-21T05:24:00;2.70;;;2.20;;
527;SDS011;250;47.712;7.508;2022-09-21T05:26:27;3.40;;;2.27;;
527;SDS011;250;47.712;7.508;2022-09-21T05:28:55;2.30;;;1.70;;
527;SDS011;250;47.712;7.508;2022-09-21T05:31:30;6.30;;;1.93;;
527;SDS011;250;47.712;7.508;2022-09-21T05:34:08;4.30;;;1.53;;
527;SDS011;250;47.712;7.508;2022-09-21T05:36:45;3.43;;;2.37;;
527;SDS011;250;47.712;7.508;2022-09-21T05:39:18;3.13;;;2.23;;
527;SDS011;250;47.712;7.508;2022-09-21T05:41:45;2.87;;;2.17;;
527;SDS011;250;47.712;7.508;2022-09-21T05:44:13;4.27;;;2.13;;
527;SDS011;250;47.712;7.508;2022-09-21T05:46:41;3.30;;;2.37;;
527;SDS011;250;47.712;7.508;2022-09-21T05:49:16;3.23;;;2.43;;
527;SDS011;250;47.712;7.508;2022-09-21T05:51:48;6.57;;;2.37;;
527;SDS011;250;47.712;7.508;2022-09-21T05:54:24;4.70;;;2.43;;
527;SDS011;250;47.712;7.508;2022-09-21T05:57:04;3.50;;;2.27;;
527;SDS011;250;47.712;7.508;2022-09-21T05:59:41;5.53;;;2.20;;
527;SDS011;250;47.712;7.508;2022-09-21T06:02:18;4.23;;;2.50;;
527;SDS011;250;47.712;7.508;2022-09-21T06:04:52;12.00;;;3.97;;
527;SDS011;250;47.712;7.508;2022-09-21T06:07:22;21.47;;;7.57;;
527;SDS011;250;47.712;7.508;2022-09-21T06:09:50;16.40;;;7.43;;
527;SDS011;250;47.712;7.508;2022-09-21T06:12:17;12.13;;;6.13;;
527;SDS011;250;47.712;7.508;2022-09-21T06:14:44;10.33;;;6.40;;
527;SDS011;250;47.712;7.508;2022-09-21T06:17:11;12.00;;;5.50;;
527;SDS011;250;47.712;7.508;2022-09-21T06:19:38;8.40;;;6.03;;
527;SDS011;250;47.712;7.508;2022-09-21T06:22:06;8.77;;;6.03;;
527;SDS011;250;47.712;7.508;2022-09-21T06:24:33;8.20;;;5.77;;
527;SDS011;250;47.712;7.508;2022-09-21T06:27:00;8.80;;;5.20;;
527;SDS011;250;47.712;7.508;2022-09-21T06:29:27;9.93;;;5.97;;
527;SDS011;250;47.712;7.508;2022-09-21T06:31:54;11.00;;;6.30;;
527;SDS011;250;47.712;7.508;2022-09-21T06:34:22;8.00;;;5.57;;
527;SDS011;250;47.712;7.508;2022-09-21T06:36:49;11.17;;;5.90;;
527;SDS011;250;47.712;7.508;2022-09-21T06:39:17;10.27;;;6.20;;
527;SDS011;250;47.712;7.508;2022-09-21T06:41:44;10.17;;;6.00;;
527;SDS011;250;47.712;7.508;2022-09-21T06:44:11;10.50;;;4.70;;
527;SDS011;250;47.712;7.508;2022-09-21T06:46:38;11.43;;;5.70;;
527;SDS011;250;47.712;7.508;2022-09-21T06:49:05;7.50;;;5.17;;
527;SDS011;250;47.712;7.508;2022-09-21T06:51:32;8.30;;;4.70;;
527;SDS011;250;47.712;7.508;2022-09-21T06:54:00;5.90;;;4.73;;
527;SDS011;250;47.712;7.508;2022-09-21T06:56:28;8.63;;;5.80;;
527;SDS011;250;47.712;7.508;2022-09-21T06:58:55;6.90;;;5.00;;
527;SDS011;250;47.712;7.508;2022-09-21T07:01:23;9.57;;;5.80;;
527;SDS011;250;47.712;7.508;2022-09-21T07:03:50;16.73;;;7.53;;
527;SDS011;250;47.712;7.508;2022-09-21T07:06:18;9.20;;;6.80;;
527;SDS011;250;47.712;7.508;2022-09-21T07:08:45;10.33;;;6.57;;
527;SDS011;250;47.712;7.508;2022-09-21T07:11:13;9.80;;;6.80;;
527;SDS011;250;47.712;7.508;2022-09-21T07:13:41;8.97;;;6.00;;
527;SDS011;250;47.712;7.508;2022-09-21T07:16:09;9.93;;;7.57;;
527;SDS011;250;47.712;7.508;2022-09-21T07:18:38;11.87;;;7.70;;
527;SDS011;250;47.712;7.508;2022-09-21T07:21:06;13.07;;;8.13;;
527;SDS011;250;47.712;7.508;2022-09-21T07:23:34;13.53;;;9.23;;
527;SDS011;250;47.712;7.508;2022-09-21T07:26:02;15.20;;;9.30;;
527;SDS011;250;47.712;7.508;2022-09-21T07:28:31;13.87;;;9.83;;
527;SDS011;250;47.712;7.508;2022-09-21T07:31:04;17.90;;;10.80;;
527;SDS011;250;47.712;7.508;2022-09-21T07:33:32;13.00;;;8.90;;
527;SDS011;250;47.712;7.508;2022-09-21T07:36:00;14.17;;;9.30;;
527;SDS011;250;47.712;7.508;2022-09-21T07:38:34;14.20;;;10.43;;
527;SDS011;250;47.712;7.508;2022-09-21T07:41:01;11.70;;;8.13;;
527;SDS011;250;47.712;7.508;2022-09-21T07:43:28;16.03;;;9.70;;
527;SDS011;250;47.712;7.508;2022-09-21T07:45:55;17.23;;;9.00;;
527;SDS011;250;47.712;7.508;2022-09-21T07:48:24;16.40;;;9.57;;
527;SDS011;250;47.712;7.508;2022-09-21T07:50:51;15.03;;;10.37;;
527;SDS011;250;47.712;7.508;2022-09-21T07:53:18;13.10;;;9.60;;
527;SDS011;250;47.712;7.508;2022-09-21T07:55:46;13.23;;;9.27;;
527;SDS011;250;47.712;7.508;2022-09-21T07:58:13;16.57;;;10.40;;
527;SDS011;250;47.712;7.508;2022-09-21T08:00:57;17.33;;;10.70;;
527;SDS011;250;47.712;7.508;2022-09-21T08:03:26;16.17;;;9.90;;
527;SDS011;250;47.712;7.508;2022-09-21T08:05:53;13.67;;;10.13;;
527;SDS011;250;47.712;7.508;2022-09-21T08:08:20;13.77;;;10.60;;
527;SDS011;250;47.712;7.508;2022-09-21T08:10:47;20.77;;;10.60;;
527;SDS011;250;47.712;7.508;2022-09-21T08:13:17;15.50;;;8.93;;
527;SDS011;250;47.712;7.508;2022-09-21T08:15:44;16.80;;;10.30;;
527;SDS011;250;47.712;7.508;2022-09-21T08:18:11;15.10;;;10.70;;
527;SDS011;250;47.712;7.508;2022-09-21T08:20:39;11.37;;;10.10;;
527;SDS011;250;47.712;7.508;2022-09-21T08:23:06;12.30;;;9.93;;
527;SDS011;250;47.712;7.508;2022-09-21T08:25:33;11.90;;;8.43;;
527;SDS011;250;47.712;7.508;2022-09-21T08:28:00;14.43;;;9.00;;
527;SDS011;250;47.712;7.508;2022-09-21T08:30:27;10.70;;;8.70;;
527;SDS011;250;47.712;7.508;2022-09-21T08:32:56;12.17;;;9.20;;
527;SDS011;250;47.712;7.508;2022-09-21T08:35:23;11.23;;;8.67;;
527;SDS011;250;47.712;7.508;2022-09-21T08:37:53;9.80;;;8.50;;
527;SDS011;250;47.712;7.508;2022-09-21T08:40:20;10.00;;;8.37;;
527;SDS011;250;47.712;7.508;2022-09-21T08:42:51;11.57;;;8.87;;
527;SDS011;250;47.712;7.508;2022-09-21T08:45:23;9.30;;;8.00;;
527;SDS011;250;47.712;7.508;2022-09-21T08:47:56;11.73;;;7.87;;
527;SDS011;250;47.712;7.508;2022-09-21T08:50:29;11.63;;;7.93;;
527;SDS011;250;47.712;7.508;2022-09-21T08:53:04;11.90;;;8.63;;
527;SDS011;250;47.712;7.508;2022-09-21T08:55:35;12.97;;;9.60;;
527;SDS011;250;47.712;7.508;2022-09-21T08:58:03;10.30;;;8.97;;
527;SDS011;250;47.712;7.508;2022-09-21T09:00:32;12.07;;;8.20;;
527;SDS011;250;47.712;7.508;2022-09-21T09:03:24;11.23;;;7.90;;
527;SDS011;250;47.712;7.508;2022-09-21T09:06:00;10.10;;;7.40;;
527;SDS011;250;47.712;7.508;2022-09-21T09:08:47;11.93;;;7.80;;
527;SDS011;250;47.712;7.508;2022-09-21T09:11:35;10.25;;;7.85;;
527;SDS011;250;47.712;7.508;2022-09-21T09:14:19;7.00;;;5.70;;
527;SDS011;250;47.712;7.508;2022-09-21T09:16:58;8.07;;;5.93;;
527;SDS011;250;47.712;7.508;2022-09-21T09:19:42;9.93;;;6.87;;
527;SDS011;250;47.712;7.508;2022-09-21T09:22:14;8.77;;;5.97;;
527;SDS011;250;47.712;7.508;2022-09-21T09:24:50;8.60;;;6.27;;
527;SDS011;250;47.712;7.508;2022-09-21T09:27:18;12.07;;;6.50;;
527;SDS011;250;47.712;7.508;2022-09-21T09:29:51;10.60;;;7.40;;
527;SDS011;250;47.712;7.508;2022-09-21T09:32:25;5.83;;;4.97;;
527;SDS011;250;47.712;7.508;2022-09-21T09:35:04;8.03;;;5.60;;
527;SDS011;250;47.712;7.508;2022-09-21T09:37:38;7.50;;;5.67;;
527;SDS011;250;47.712;7.508;2022-09-21T09:40:11;7.80;;;5.77;;
527;SDS011;250;47.712;7.508;2022-09-21T09:42:46;7.47;;;5.57;;
527;SDS011;250;47.712;7.508;2022-09-21T09:45:27;9.90;;;5.77;;
527;SDS011;250;47.712;7.508;2022-09-21T09:50:51;10.00;;;4.90;;
527;SDS011;250;47.712;7.508;2022-09-21T09:53:19;7.97;;;4.90;;
527;SDS011;250;47.712;7.508;2022-09-21T09:55:50;7.77;;;5.40;;
527;SDS011;250;47.712;7.508;2022-09-21T09:58:20;13.33;;;8.30;;
527;SDS011;250;47.712;7.508;2022-09-21T10:00:50;12.53;;;5.77;;
527;SDS011;250;47.712;7.508;2022-09-21T10:03:20;7.30;;;4.40;;
527;SDS011;250;47.712;7.508;2022-09-21T10:05:49;7.77;;;5.03;;
527;SDS011;250;47.712;7.508;2022-09-21T10:08:26;5.17;;;4.00;;
527;SDS011;250;47.712;7.508;2022-09-21T10:11:13;7.27;;;5.53;;
527;SDS011;250;47.712;7.508;2022-09-21T10:13:42;6.43;;;5.43;;
527;SDS011;250;47.712;7.508;2022-09-21T10:16:11;6.80;;;4.47;;
527;SDS011;250;47.712;7.508;2022-09-21T10:18:44;8.10;;;5.70;;
527;SDS011;250;47.712;7.508;2022-09-21T10:21:16;9.47;;;5.50;;
527;SDS011;250;47.712;7.508;2022-09-21T10:23:47;6.87;;;5.10;;
527;SDS011;250;47.712;7.508;2022-09-21T10:26:18;12.57;;;6.30;;
527;SDS011;250;47.712;7.508;2022-09-21T10:28:56;8.33;;;4.67;;
527;SDS011;250;47.712;7.508;2022-09-21T10:31:25;10.10;;;4.43;;
527;SDS011;250;47.712;7.508;2022-09-21T10:33:54;7.43;;;4.50;;
527;SDS011;250;47.712;7.508;2022-09-21T10:36:32;5.80;;;5.03;;
527;SDS011;250;47.712;7.508;2022-09-21T10:39:20;5.30;;;4.67;;
527;SDS011;250;47.712;7.508;2022-09-21T10:41:55;7.37;;;5.03;;
527;SDS011;250;47.712;7.508;2022-09-21T10:44:26;14.03;;;5.63;;
527;SDS011;250;47.712;7.508;2022-09-21T10:46:58;5.67;;;4.50;;
527;SDS011;250;47.712;7.508;2022-09-21T10:49:41;5.70;;;4.00;;
527;SDS011;250;47.712;7.508;2022-09-21T10:52:10;7.70;;;4.40;;
527;SDS011;250;47.712;7.508;2022-09-21T10:54:37;8.47;;;5.17;;
527;SDS011;250;47.712;7.508;2022-09-21T10:57:12;10.10;;;3.73;;
527;SDS011;250;47.712;7.508;2022-09-21T10:59:41;8.90;;;4.90;;
527;SDS011;250;47.712;7.508;2022-09-21T11:02:25;6.00;;;4.70;;
527;SDS011;250;47.712;7.508;2022-09-21T11:04:59;6.70;;;3.90;;
527;SDS011;250;47.712;7.508;2022-09-21T11:07:34;4.83;;;3.20;;
527;SDS011;250;47.712;7.508;2022-09-21T11:10:10;4.87;;;3.67;;
527;SDS011;250;47.712;7.508;2022-09-21T11:12:47;4.53;;;3.23;;
527;SDS011;250;47.712;7.508;2022-09-21T11:15:26;6.00;;;3.77;;
527;SDS011;250;47.712;7.508;2022-09-21T11:18:04;8.80;;;3.73;;
527;SDS011;250;47.712;7.508;2022-09-21T11:20:41;4.87;;;3.13;;
527;SDS011;250;47.712;7.508;2022-09-21T11:23:15;5.83;;;3.40;;
527;SDS011;250;47.712;7.508;2022-09-21T11:25:53;4.10;;;2.53;;
527;SDS011;250;47.712;7.508;2022-09-21T11:28:28;4.43;;;3.10;;
527;SDS011;250;47.712;7.508;2022-09-21T11:31:02;2.80;;;2.50;;
527;SDS011;250;47.712;7.508;2022-09-21T11:33:48;3.97;;;2.90;;
527;SDS011;250;47.712;7.508;2022-09-21T11:36:30;4.97;;;3.20;;
527;SDS011;250;47.712;7.508;2022-09-21T11:39:08;4.47;;;3.30;;
527;SDS011;250;47.712;7.508;2022-09-21T11:41:52;5.43;;;2.63;;
527;SDS011;250;47.712;7.508;2022-09-21T11:44:34;4.83;;;2.77;;
527;SDS011;250;47.712;7.508;2022-09-21T11:47:16;3.70;;;2.47;;
527;SDS011;250;47.712;7.508;2022-09-21T11:50:17;3.70;;;2.10;;
527;SDS011;250;47.712;7.508;2022-09-21T11:52:54;4.47;;;2.93;;
527;SDS011;250;47.712;7.508;2022-09-21T11:55:35;3.67;;;2.63;;
527;SDS011;250;47.712;7.508;2022-09-21T11:58:23;16.90;;;3.70;;
527;SDS011;250;47.712;7.508;2022-09-21T12:01:01;5.10;;;3.03;;
527;SDS011;250;47.712;7.508;2022-09-21T12:06:37;4.57;;;2.87;;
527;SDS011;250;47.712;7.508;2022-09-21T12:09:23;3.63;;;2.40;;
527;SDS011;250;47.712;7.508;2022-09-21T12:12:04;7.70;;;2.27;;
527;SDS011;250;47.712;7.508;2022-09-21T12:14:37;7.70;;;2.80;;
527;SDS011;250;47.712;7.508;2022-09-21T12:17:17;2.63;;;1.93;;
527;SDS011;250;47.712;7.508;2022-09-21T12:19:50;6.70;;;2.60;;
527;SDS011;250;47.712;7.508;2022-09-21T12:22:27;3.37;;;1.60;;
527;SDS011;250;47.712;7.508;2022-09-21T12:24:58;3.53;;;2.00;;
527;SDS011;250;47.712;7.508;2022-09-21T12:27:31;4.63;;;2.03;;
527;SDS011;250;47.712;7.508;2022-09-21T12:30:03;3.50;;;2.17;;
527;SDS011;250;47.712;7.508;2022-09-21T12:32:38;3.63;;;1.77;;
527;SDS011;250;47.712;7.508;2022-09-21T12:35:18;4.10;;;1.40;;
527;SDS011;250;47.712;7.508;2022-09-21T12:37:52;2.83;;;1.67;;
527;SDS011;250;47.712;7.508;2022-09-21T12:40:26;3.40;;;2.27;;
527;SDS011;250;47.712;7.508;2022-09-21T12:43:00;3.40;;;2.20;;
527;SDS011;250;47.712;7.508;2022-09-21T12:45:35;3.97;;;2.10;;
527;SDS011;250;47.712;7.508;2022-09-21T12:48:11;4.13;;;2.27;;
527;SDS011;250;47.712;7.508;2022-09-21T12:50:45;2.57;;;1.50;;
527;SDS011;250;47.712;7.508;2022-09-21T12:53:15;1.80;;;1.10;;
527;SDS011;250;47.712;7.508;2022-09-21T12:55:48;2.83;;;1.90;;
527;SDS011;250;47.712;7.508;2022-09-21T12:58:33;2.50;;;1.70;;
527;SDS011;250;47.712;7.508;2022-09-21T13:01:12;4.60;;;2.53;;
527;SDS011;250;47.712;7.508;2022-09-21T13:03:54;2.40;;;1.60;;
527;SDS011;250;47.712;7.508;2022-09-21T13:06:35;2.37;;;1.50;;
527;SDS011;250;47.712;7.508;2022-09-21T13:09:10;2.30;;;1.40;;
527;SDS011;250;47.712;7.508;2022-09-21T13:11:48;2.50;;;1.17;;
527;SDS011;250;47.712;7.508;2022-09-21T13:14:18;2.50;;;1.33;;
527;SDS011;250;47.712;7.508;2022-09-21T13:16:52;3.80;;;1.70;;
527;SDS011;250;47.712;7.508;2022-09-21T13:19:23;2.70;;;1.60;;
527;SDS011;250;47.712;7.508;2022-09-21T13:24:40;2.10;;;1.20;;
527;SDS011;250;47.712;7.508;2022-09-21T13:27:09;2.70;;;1.23;;
527;SDS011;250;47.712;7.508;2022-09-21T13:29:37;1.57;;;1.03;;
527;SDS011;250;47.712;7.508;2022-09-21T13:34:51;1.93;;;1.10;;
527;SDS011;250;47.712;7.508;2022-09-21T13:37:25;2.60;;;0.97;;
527;SDS011;250;47.712;7.508;2022-09-21T13:49:31;2.60;;;0.93;;
527;SDS011;250;47.712;7.508;2022-09-21T13:52:06;2.93;;;1.53;;
527;SDS011;250;47.712;7.508;2022-09-21T13:54:46;2.80;;;1.07;;
527;SDS011;250;47.712;7.508;2022-09-21T13:57:17;2.73;;;1.70;;
527;SDS011;250;47.712;7.508;2022-09-21T13:59:56;2.00;;;1.10;;
527;SDS011;250;47.712;7.508;2022-09-21T14:02:33;6.20;;;1.20;;
527;SDS011;250;47.712;7.508;2022-09-21T14:05:05;4.40;;;1.10;;
527;SDS011;250;47.712;7.508;2022-09-21T14:07:45;3.40;;;1.20;;
527;SDS011;250;47.712;7.508;2022-09-21T14:10:15;2.37;;;0.90;;
527;SDS011;250;47.712;7.508;2022-09-21T14:12:45;3.07;;;0.90;;
527;SDS011;250;47.712;7.508;2022-09-21T14:21:13;2.47;;;0.90;;
527;SDS011;250;47.712;7.508;2022-09-21T14:26:58;3.63;;;1.17;;
527;SDS011;250;47.712;7.508;2022-09-21T14:29:35;2.53;;;1.33;;
527;SDS011;250;47.712;7.508;2022-09-21T14:32:12;1.40;;;0.80;;
527;SDS011;250;47.712;7.508;2022-09-21T14:34:44;2.53;;;1.20;;
527;SDS011;250;47.712;7.508;2022-09-21T14:37:18;5.70;;;1.73;;
527;SDS011;250;47.712;7.508;2022-09-21T14:39:54;3.77;;;0.90;;
527;SDS011;250;47.712;7.508;2022-09-21T14:42:23;2.43;;;1.50;;
527;SDS011;250;47.712;7.508;2022-09-21T14:44:54;1.90;;;1.00;;
527;SDS011;250;47.712;7.508;2022-09-21T14:50:28;2.43;;;1.20;;
527;SDS011;250;47.712;7.508;2022-09-21T14:53:01;3.20;;;1.60;;
527;SDS011;250;47.712;7.508;2022-09-21T14:55:46;3.80;;;1.77;;
527;SDS011;250;47.712;7.508;2022-09-21T14:58:28;3.53;;;1.40;;
527;SDS011;250;47.712;7.508;2022-09-21T15:01:20;7.17;;;0.90;;
527;SDS011;250;47.712;7.508;2022-09-21T15:07:01;1.27;;;0.50;;
527;SDS011;250;47.712;7.508;2022-09-21T15:10:02;1.27;;;0.60;;
527;SDS011;250;47.712;7.508;2022-09-21T15:13:09;2.90;;;0.80;;
527;SDS011;250;47.712;7.508;2022-09-21T15:15:45;5.33;;;1.10;;
527;SDS011;250;47.712;7.508;2022-09-21T15:18:22;1.80;;;0.80;;
527;SDS011;250;47.712;7.508;2022-09-21T15:20:56;3.03;;;1.03;;
527;SDS011;250;47.712;7.508;2022-09-21T15:23:26;1.73;;;0.70;;
527;SDS011;250;47.712;7.508;2022-09-21T15:25:56;4.50;;;0.90;;
527;SDS011;250;47.712;7.508;2022-09-21T15:28:37;2.23;;;0.73;;
527;SDS011;250;47.712;7.508;2022-09-21T15:31:12;1.60;;;0.70;;
527;SDS011;250;47.712;7.508;2022-09-21T15:33:40;1.63;;;0.80;;
527;SDS011;250;47.712;7.508;2022-09-21T15:36:10;1.57;;;0.70;;
527;SDS011;250;47.712;7.508;2022-09-21T15:38:38;2.77;;;1.10;;
527;SDS011;250;47.712;7.508;2022-09-21T15:41:08;5.23;;;1.10;;
527;SDS011;250;47.712;7.508;2022-09-21T15:44:10;2.60;;;1.20;;
527;SDS011;250;47.712;7.508;2022-09-21T15:46:39;2.07;;;0.90;;
527;SDS011;250;47.712;7.508;2022-09-21T15:49:12;2.43;;;1.40;;
527;SDS011;250;47.712;7.508;2022-09-21T15:51:42;1.60;;;0.60;;
527;SDS011;250;47.712;7.508;2022-09-21T15:54:22;1.60;;;0.83;;
527;SDS011;250;47.712;7.508;2022-09-21T15:56:56;3.23;;;1.10;;
527;SDS011;250;47.712;7.508;2022-09-21T15:59:25;2.33;;;1.17;;
527;SDS011;250;47.712;7.508;2022-09-21T16:01:54;2.13;;;0.70;;
527;SDS011;250;47.712;7.508;2022-09-21T16:04:24;3.37;;;0.90;;
527;SDS011;250;47.712;7.508;2022-09-21T16:07:01;2.00;;;0.77;;
527;SDS011;250;47.712;7.508;2022-09-21T16:09:37;1.60;;;0.80;;
527;SDS011;250;47.712;7.508;2022-09-21T16:15:18;1.40;;;0.50;;
527;SDS011;250;47.712;7.508;2022-09-21T16:17:56;2.30;;;0.77;;
527;SDS011;250;47.712;7.508;2022-09-21T16:20:39;4.17;;;1.20;;
527;SDS011;250;47.712;7.508;2022-09-21T16:23:12;3.37;;;1.00;;
527;SDS011;250;47.712;7.508;2022-09-21T16:25:41;2.17;;;0.70;;
527;SDS011;250;47.712;7.508;2022-09-21T16:31:30;2.60;;;0.97;;
527;SDS011;250;47.712;7.508;2022-09-21T16:34:12;2.30;;;1.00;;
527;SDS011;250;47.712;7.508;2022-09-21T16:36:48;2.23;;;1.00;;
527;SDS011;250;47.712;7.508;2022-09-21T16:39:17;1.90;;;0.90;;
527;SDS011;250;47.712;7.508;2022-09-21T16:41:47;1.73;;;0.93;;
527;SDS011;250;47.712;7.508;2022-09-21T16:44:17;1.90;;;1.00;;
527;SDS011;250;47.712;7.508;2022-09-21T16:46:49;2.13;;;1.30;;
527;SDS011;250;47.712;7.508;2022-09-21T16:49:21;4.60;;;1.43;;
527;SDS011;250;47.712;7.508;2022-09-21T16:51:51;2.00;;;0.90;;
527;SDS011;250;47.712;7.508;2022-09-21T16:54:20;2.00;;;1.17;;
527;SDS011;250;47.712;7.508;2022-09-21T16:56:50;2.30;;;1.10;;